sensor_id;sensor_type;location;lat;lon;timestamp;P1;durP1;ratioP1;P2;durP2;ratioP2
14346;SDS011;7257;52.158;9.968;2023-03-13T00:00:14;14.60;;;4.18;;
14346;SDS011;7257;52.158;9.968;2023-03-13T00:00:36;15.82;;;4.38;;
14346;SDS011;7257;52.158;9.968;2023-03-13T00:00:57;14.77;;;5.18;;
14346;SDS011;7257;52.158;9.968;2023-03-13T00:01:21;11.63;;;4.78;;
14346;SDS011;7257;52.158;9.968;2023-03-13T00:01:45;10.07;;;4.40;;
14346;SDS011;7257;52.158;9.968;2023-03-13T00:02:07;11.23;;;4.35;;
14346;SDS011;7257;52.158;9.968;2023-03-13T00:02:28;11.52;;;4.38;;
14346;SDS011;7257;52.158;9.968;2023-03-13T00:02:50;12.77;;;4.20;;
14346;SDS011;7257;52.158;9.968;2023-03-13T00:03:11;11.13;;;4.80;;
14346;SDS011;7257;52.158;9.968;2023-03-13T00:03:32;13.35;;;5.18;;
14346;SDS011;7257;52.158;9.968;2023-03-13T00:03:54;13.10;;;5.20;;
14346;SDS011;7257;52.158;9.968;2023-03-13T00:04:16;14.20;;;5.30;;
14346;SDS011;7257;52.158;9.968;2023-03-13T00:04:37;9.48;;;5.03;;
14346;SDS011;7257;52.158;9.968;2023-03-13T00:04:58;9.23;;;5.55;;
14346;SDS011;7257;52.158;9.968;2023-03-13T00:05:19;10.70;;;5.53;;
14346;SDS011;7257;52.158;9.968;2023-03-13T00:05:39;12.95;;;5.75;;
14346;SDS011;7257;52.158;9.968;2023-03-13T00:06:01;11.90;;;5.65;;
14346;SDS011;7257;52.158;9.968;2023-03-13T00:06:22;11.30;;;5.72;;
14346;SDS011;7257;52.158;9.968;2023-03-13T00:06:46;10.48;;;5.57;;
14346;SDS011;7257;52.158;9.968;2023-03-13T00:07:10;12.55;;;5.70;;
14346;SDS011;7257;52.158;9.968;2023-03-13T00:07:32;11.43;;;5.30;;
14346;SDS011;7257;52.158;9.968;2023-03-13T00:07:53;12.25;;;5.20;;
14346;SDS011;7257;52.158;9.968;2023-03-13T00:08:14;10.82;;;5.35;;
14346;SDS011;7257;52.158;9.968;2023-03-13T00:08:35;9.90;;;5.30;;
14346;SDS011;7257;52.158;9.968;2023-03-13T00:08:58;10.80;;;6.22;;
14346;SDS011;7257;52.158;9.968;2023-03-13T00:09:19;11.32;;;5.95;;
14346;SDS011;7257;52.158;9.968;2023-03-13T00:09:43;11.00;;;4.75;;
14346;SDS011;7257;52.158;9.968;2023-03-13T00:10:04;11.88;;;4.60;;
14346;SDS011;7257;52.158;9.968;2023-03-13T00:10:26;10.68;;;4.32;;
14346;SDS011;7257;52.158;9.968;2023-03-13T00:10:48;11.85;;;4.80;;
14346;SDS011;7257;52.158;9.968;2023-03-13T00:11:10;12.00;;;5.15;;
14346;SDS011;7257;52.158;9.968;2023-03-13T00:11:32;11.73;;;5.53;;
14346;SDS011;7257;52.158;9.968;2023-03-13T00:11:53;12.15;;;5.68;;
14346;SDS011;7257;52.158;9.968;2023-03-13T00:12:15;14.07;;;6.00;;
14346;SDS011;7257;52.158;9.968;2023-03-13T00:12:40;13.90;;;5.15;;
14346;SDS011;7257;52.158;9.968;2023-03-13T00:13:01;11.15;;;3.75;;
14346;SDS011;7257;52.158;9.968;2023-03-13T00:13:22;12.18;;;3.85;;
14346;SDS011;7257;52.158;9.968;2023-03-13T00:13:44;12.18;;;4.13;;
14346;SDS011;7257;52.158;9.968;2023-03-13T00:14:05;11.90;;;4.97;;
14346;SDS011;7257;52.158;9.968;2023-03-13T00:14:26;11.63;;;5.28;;
14346;SDS011;7257;52.158;9.968;2023-03-13T00:14:47;10.23;;;5.37;;
14346;SDS011;7257;52.158;9.968;2023-03-13T00:15:09;11.52;;;5.30;;
14346;SDS011;7257;52.158;9.968;2023-03-13T00:15:30;10.50;;;5.03;;
14346;SDS011;7257;52.158;9.968;2023-03-13T00:15:58;11.85;;;4.97;;
14346;SDS011;7257;52.158;9.968;2023-03-13T00:16:19;12.98;;;5.22;;
14346;SDS011;7257;52.158;9.968;2023-03-13T00:16:41;14.55;;;5.30;;
14346;SDS011;7257;52.158;9.968;2023-03-13T00:17:02;13.20;;;5.50;;
14346;SDS011;7257;52.158;9.968;2023-03-13T00:17:23;13.35;;;5.13;;
14346;SDS011;7257;52.158;9.968;2023-03-13T00:17:46;12.55;;;5.10;;
14346;SDS011;7257;52.158;9.968;2023-03-13T00:18:08;12.40;;;5.15;;
14346;SDS011;7257;52.158;9.968;2023-03-13T00:18:29;11.43;;;4.95;;
14346;SDS011;7257;52.158;9.968;2023-03-13T00:18:51;11.23;;;4.38;;
14346;SDS011;7257;52.158;9.968;2023-03-13T00:19:14;10.35;;;4.38;;
14346;SDS011;7257;52.158;9.968;2023-03-13T00:19:35;11.75;;;4.60;;
14346;SDS011;7257;52.158;9.968;2023-03-13T00:19:57;11.75;;;4.50;;
14346;SDS011;7257;52.158;9.968;2023-03-13T00:20:18;11.43;;;4.80;;
14346;SDS011;7257;52.158;9.968;2023-03-13T00:20:41;9.95;;;4.63;;
14346;SDS011;7257;52.158;9.968;2023-03-13T00:21:02;9.23;;;4.57;;
14346;SDS011;7257;52.158;9.968;2023-03-13T00:21:25;9.77;;;4.40;;
14346;SDS011;7257;52.158;9.968;2023-03-13T00:21:48;12.95;;;4.50;;
14346;SDS011;7257;52.158;9.968;2023-03-13T00:22:09;12.75;;;4.35;;
14346;SDS011;7257;52.158;9.968;2023-03-13T00:22:30;12.98;;;4.35;;
14346;SDS011;7257;52.158;9.968;2023-03-13T00:22:51;11.02;;;4.00;;
14346;SDS011;7257;52.158;9.968;2023-03-13T00:23:12;11.80;;;4.20;;
14346;SDS011;7257;52.158;9.968;2023-03-13T00:23:34;10.85;;;4.00;;
14346;SDS011;7257;52.158;9.968;2023-03-13T00:23:56;9.60;;;4.05;;
14346;SDS011;7257;52.158;9.968;2023-03-13T00:24:18;8.95;;;4.30;;
14346;SDS011;7257;52.158;9.968;2023-03-13T00:24:38;10.35;;;4.25;;
14346;SDS011;7257;52.158;9.968;2023-03-13T00:25:00;11.13;;;4.38;;
14346;SDS011;7257;52.158;9.968;2023-03-13T00:25:21;12.38;;;4.57;;
14346;SDS011;7257;52.158;9.968;2023-03-13T00:25:42;11.57;;;4.97;;
14346;SDS011;7257;52.158;9.968;2023-03-13T00:26:04;13.25;;;5.35;;
14346;SDS011;7257;52.158;9.968;2023-03-13T00:26:26;10.40;;;4.63;;
14346;SDS011;7257;52.158;9.968;2023-03-13T00:26:47;9.30;;;3.95;;
14346;SDS011;7257;52.158;9.968;2023-03-13T00:27:09;8.38;;;3.90;;
14346;SDS011;7257;52.158;9.968;2023-03-13T00:27:33;9.73;;;4.40;;
14346;SDS011;7257;52.158;9.968;2023-03-13T00:27:54;12.32;;;4.72;;
14346;SDS011;7257;52.158;9.968;2023-03-13T00:28:17;10.98;;;4.25;;
14346;SDS011;7257;52.158;9.968;2023-03-13T00:28:39;8.70;;;3.90;;
14346;SDS011;7257;52.158;9.968;2023-03-13T00:29:01;9.48;;;4.38;;
14346;SDS011;7257;52.158;9.968;2023-03-13T00:29:22;9.10;;;4.10;;
14346;SDS011;7257;52.158;9.968;2023-03-13T00:29:43;9.32;;;4.25;;
14346;SDS011;7257;52.158;9.968;2023-03-13T00:30:04;9.10;;;3.80;;
14346;SDS011;7257;52.158;9.968;2023-03-13T00:30:26;12.45;;;4.15;;
14346;SDS011;7257;52.158;9.968;2023-03-13T00:30:48;13.18;;;4.10;;
14346;SDS011;7257;52.158;9.968;2023-03-13T00:31:09;12.07;;;4.70;;
14346;SDS011;7257;52.158;9.968;2023-03-13T00:31:31;11.52;;;4.63;;
14346;SDS011;7257;52.158;9.968;2023-03-13T00:31:53;10.43;;;4.22;;
14346;SDS011;7257;52.158;9.968;2023-03-13T00:32:14;8.93;;;3.38;;
14346;SDS011;7257;52.158;9.968;2023-03-13T00:32:39;7.77;;;3.37;;
14346;SDS011;7257;52.158;9.968;2023-03-13T00:33:00;8.38;;;3.85;;
14346;SDS011;7257;52.158;9.968;2023-03-13T00:33:22;8.55;;;4.43;;
14346;SDS011;7257;52.158;9.968;2023-03-13T00:33:43;11.73;;;4.07;;
14346;SDS011;7257;52.158;9.968;2023-03-13T00:34:06;15.27;;;4.07;;
14346;SDS011;7257;52.158;9.968;2023-03-13T00:34:30;14.65;;;5.05;;
14346;SDS011;7257;52.158;9.968;2023-03-13T00:34:52;16.35;;;5.30;;
14346;SDS011;7257;52.158;9.968;2023-03-13T00:35:13;13.10;;;4.50;;
14346;SDS011;7257;52.158;9.968;2023-03-13T00:35:35;13.63;;;4.68;;
14346;SDS011;7257;52.158;9.968;2023-03-13T00:35:59;11.65;;;4.50;;
14346;SDS011;7257;52.158;9.968;2023-03-13T00:36:20;14.63;;;4.80;;
14346;SDS011;7257;52.158;9.968;2023-03-13T00:36:44;15.10;;;4.57;;
14346;SDS011;7257;52.158;9.968;2023-03-13T00:37:05;12.95;;;4.22;;
14346;SDS011;7257;52.158;9.968;2023-03-13T00:37:26;11.52;;;4.18;;
14346;SDS011;7257;52.158;9.968;2023-03-13T00:37:46;11.73;;;4.22;;
14346;SDS011;7257;52.158;9.968;2023-03-13T00:38:08;9.55;;;4.03;;
14346;SDS011;7257;52.158;9.968;2023-03-13T00:38:30;12.70;;;4.53;;
14346;SDS011;7257;52.158;9.968;2023-03-13T00:38:51;15.60;;;4.93;;
14346;SDS011;7257;52.158;9.968;2023-03-13T00:39:13;16.17;;;4.75;;
14346;SDS011;7257;52.158;9.968;2023-03-13T00:39:35;15.85;;;4.32;;
14346;SDS011;7257;52.158;9.968;2023-03-13T00:39:56;14.48;;;4.45;;
14346;SDS011;7257;52.158;9.968;2023-03-13T00:40:17;13.73;;;5.20;;
14346;SDS011;7257;52.158;9.968;2023-03-13T00:40:39;12.88;;;5.85;;
14346;SDS011;7257;52.158;9.968;2023-03-13T00:41:00;14.90;;;5.50;;
14346;SDS011;7257;52.158;9.968;2023-03-13T00:41:24;13.60;;;4.78;;
14346;SDS011;7257;52.158;9.968;2023-03-13T00:41:46;12.50;;;4.70;;
14346;SDS011;7257;52.158;9.968;2023-03-13T00:42:07;9.90;;;4.77;;
14346;SDS011;7257;52.158;9.968;2023-03-13T00:42:29;8.80;;;4.85;;
14346;SDS011;7257;52.158;9.968;2023-03-13T00:42:49;7.72;;;4.93;;
14346;SDS011;7257;52.158;9.968;2023-03-13T00:43:10;9.63;;;5.43;;
14346;SDS011;7257;52.158;9.968;2023-03-13T00:43:31;9.20;;;4.68;;
14346;SDS011;7257;52.158;9.968;2023-03-13T00:43:53;11.00;;;4.43;;
14346;SDS011;7257;52.158;9.968;2023-03-13T00:44:15;10.25;;;4.15;;
14346;SDS011;7257;52.158;9.968;2023-03-13T00:44:36;13.85;;;4.60;;
14346;SDS011;7257;52.158;9.968;2023-03-13T00:44:57;12.10;;;4.28;;
14346;SDS011;7257;52.158;9.968;2023-03-13T00:45:20;13.48;;;4.30;;
14346;SDS011;7257;52.158;9.968;2023-03-13T00:45:42;12.65;;;4.35;;
14346;SDS011;7257;52.158;9.968;2023-03-13T00:46:03;12.88;;;4.20;;
14346;SDS011;7257;52.158;9.968;2023-03-13T00:46:25;12.65;;;4.13;;
14346;SDS011;7257;52.158;9.968;2023-03-13T00:46:47;13.00;;;4.00;;
14346;SDS011;7257;52.158;9.968;2023-03-13T00:47:09;13.43;;;4.25;;
14346;SDS011;7257;52.158;9.968;2023-03-13T00:47:30;12.85;;;4.10;;
14346;SDS011;7257;52.158;9.968;2023-03-13T00:47:51;11.90;;;3.90;;
14346;SDS011;7257;52.158;9.968;2023-03-13T00:48:12;11.37;;;4.20;;
14346;SDS011;7257;52.158;9.968;2023-03-13T00:48:33;13.83;;;4.27;;
14346;SDS011;7257;52.158;9.968;2023-03-13T00:48:55;14.43;;;4.32;;
14346;SDS011;7257;52.158;9.968;2023-03-13T00:49:16;14.57;;;4.28;;
14346;SDS011;7257;52.158;9.968;2023-03-13T00:49:38;10.80;;;4.45;;
14346;SDS011;7257;52.158;9.968;2023-03-13T00:49:59;9.02;;;4.05;;
14346;SDS011;7257;52.158;9.968;2023-03-13T00:50:21;9.30;;;4.28;;
14346;SDS011;7257;52.158;9.968;2023-03-13T00:50:42;10.15;;;4.78;;
14346;SDS011;7257;52.158;9.968;2023-03-13T00:51:03;12.25;;;5.20;;
14346;SDS011;7257;52.158;9.968;2023-03-13T00:51:26;13.38;;;5.05;;
14346;SDS011;7257;52.158;9.968;2023-03-13T00:51:47;13.57;;;4.70;;
14346;SDS011;7257;52.158;9.968;2023-03-13T00:52:09;14.07;;;4.68;;
14346;SDS011;7257;52.158;9.968;2023-03-13T00:52:30;15.27;;;4.72;;
14346;SDS011;7257;52.158;9.968;2023-03-13T00:52:51;14.03;;;5.67;;
14346;SDS011;7257;52.158;9.968;2023-03-13T00:53:12;16.05;;;5.43;;
14346;SDS011;7257;52.158;9.968;2023-03-13T00:53:34;12.43;;;4.70;;
14346;SDS011;7257;52.158;9.968;2023-03-13T00:53:57;14.75;;;4.32;;
14346;SDS011;7257;52.158;9.968;2023-03-13T00:54:19;12.38;;;4.10;;
14346;SDS011;7257;52.158;9.968;2023-03-13T00:54:40;14.07;;;3.85;;
14346;SDS011;7257;52.158;9.968;2023-03-13T00:55:02;13.73;;;3.80;;
14346;SDS011;7257;52.158;9.968;2023-03-13T00:55:25;14.05;;;4.03;;
14346;SDS011;7257;52.158;9.968;2023-03-13T00:55:53;12.93;;;3.97;;
14346;SDS011;7257;52.158;9.968;2023-03-13T00:56:15;10.50;;;4.20;;
14346;SDS011;7257;52.158;9.968;2023-03-13T00:56:37;9.75;;;3.95;;
14346;SDS011;7257;52.158;9.968;2023-03-13T00:56:59;9.18;;;4.00;;
14346;SDS011;7257;52.158;9.968;2023-03-13T00:57:20;9.70;;;3.70;;
14346;SDS011;7257;52.158;9.968;2023-03-13T00:57:41;8.60;;;3.63;;
14346;SDS011;7257;52.158;9.968;2023-03-13T00:58:01;7.40;;;3.78;;
14346;SDS011;7257;52.158;9.968;2023-03-13T00:58:23;7.18;;;3.92;;
14346;SDS011;7257;52.158;9.968;2023-03-13T00:58:46;7.45;;;4.00;;
14346;SDS011;7257;52.158;9.968;2023-03-13T00:59:08;8.82;;;3.95;;
14346;SDS011;7257;52.158;9.968;2023-03-13T00:59:29;10.25;;;4.53;;
14346;SDS011;7257;52.158;9.968;2023-03-13T00:59:51;11.75;;;5.18;;
14346;SDS011;7257;52.158;9.968;2023-03-13T01:00:13;13.05;;;5.15;;
14346;SDS011;7257;52.158;9.968;2023-03-13T01:00:35;15.35;;;4.68;;
14346;SDS011;7257;52.158;9.968;2023-03-13T01:00:56;14.48;;;4.60;;
14346;SDS011;7257;52.158;9.968;2023-03-13T01:01:18;11.40;;;4.47;;
14346;SDS011;7257;52.158;9.968;2023-03-13T01:01:41;8.63;;;4.15;;
14346;SDS011;7257;52.158;9.968;2023-03-13T01:02:02;8.50;;;4.40;;
14346;SDS011;7257;52.158;9.968;2023-03-13T01:02:23;9.73;;;4.88;;
14346;SDS011;7257;52.158;9.968;2023-03-13T01:02:44;9.40;;;5.28;;
14346;SDS011;7257;52.158;9.968;2023-03-13T01:03:05;8.85;;;4.40;;
14346;SDS011;7257;52.158;9.968;2023-03-13T01:03:26;8.30;;;4.38;;
14346;SDS011;7257;52.158;9.968;2023-03-13T01:03:48;9.73;;;4.70;;
14346;SDS011;7257;52.158;9.968;2023-03-13T01:04:10;11.65;;;5.32;;
14346;SDS011;7257;52.158;9.968;2023-03-13T01:04:32;13.43;;;5.03;;
14346;SDS011;7257;52.158;9.968;2023-03-13T01:04:54;12.35;;;4.45;;
14346;SDS011;7257;52.158;9.968;2023-03-13T01:05:15;10.88;;;3.95;;
14346;SDS011;7257;52.158;9.968;2023-03-13T01:05:36;9.77;;;3.75;;
14346;SDS011;7257;52.158;9.968;2023-03-13T01:05:57;10.98;;;3.67;;
14346;SDS011;7257;52.158;9.968;2023-03-13T01:06:20;11.30;;;4.10;;
14346;SDS011;7257;52.158;9.968;2023-03-13T01:06:44;13.88;;;4.10;;
14346;SDS011;7257;52.158;9.968;2023-03-13T01:07:04;15.30;;;4.80;;
14346;SDS011;7257;52.158;9.968;2023-03-13T01:07:25;14.15;;;5.40;;
14346;SDS011;7257;52.158;9.968;2023-03-13T01:07:48;10.98;;;5.10;;
14346;SDS011;7257;52.158;9.968;2023-03-13T01:08:10;8.38;;;4.05;;
14346;SDS011;7257;52.158;9.968;2023-03-13T01:08:31;8.77;;;3.70;;
14346;SDS011;7257;52.158;9.968;2023-03-13T01:08:53;10.93;;;4.18;;
14346;SDS011;7257;52.158;9.968;2023-03-13T01:09:14;11.57;;;4.50;;
14346;SDS011;7257;52.158;9.968;2023-03-13T01:09:35;10.02;;;3.97;;
14346;SDS011;7257;52.158;9.968;2023-03-13T01:09:57;10.05;;;3.88;;
14346;SDS011;7257;52.158;9.968;2023-03-13T01:10:18;10.75;;;3.67;;
14346;SDS011;7257;52.158;9.968;2023-03-13T01:10:39;10.07;;;4.00;;
14346;SDS011;7257;52.158;9.968;2023-03-13T01:11:00;11.43;;;3.78;;
14346;SDS011;7257;52.158;9.968;2023-03-13T01:11:23;10.65;;;4.00;;
14346;SDS011;7257;52.158;9.968;2023-03-13T01:11:46;10.75;;;4.05;;
14346;SDS011;7257;52.158;9.968;2023-03-13T01:12:07;7.50;;;4.35;;
14346;SDS011;7257;52.158;9.968;2023-03-13T01:12:28;9.13;;;4.32;;
14346;SDS011;7257;52.158;9.968;2023-03-13T01:12:49;11.68;;;4.57;;
14346;SDS011;7257;52.158;9.968;2023-03-13T01:13:11;12.32;;;4.63;;
14346;SDS011;7257;52.158;9.968;2023-03-13T01:13:32;13.43;;;4.65;;
14346;SDS011;7257;52.158;9.968;2023-03-13T01:13:53;10.88;;;4.25;;
14346;SDS011;7257;52.158;9.968;2023-03-13T01:14:16;13.18;;;4.25;;
14346;SDS011;7257;52.158;9.968;2023-03-13T01:14:39;15.43;;;4.95;;
14346;SDS011;7257;52.158;9.968;2023-03-13T01:15:00;18.83;;;6.00;;
14346;SDS011;7257;52.158;9.968;2023-03-13T01:15:21;15.32;;;5.78;;
14346;SDS011;7257;52.158;9.968;2023-03-13T01:15:43;15.25;;;5.50;;
14346;SDS011;7257;52.158;9.968;2023-03-13T01:16:05;14.73;;;5.35;;
14346;SDS011;7257;52.158;9.968;2023-03-13T01:16:29;14.15;;;5.07;;
14346;SDS011;7257;52.158;9.968;2023-03-13T01:16:51;12.77;;;4.70;;
14346;SDS011;7257;52.158;9.968;2023-03-13T01:17:12;12.80;;;4.80;;
14346;SDS011;7257;52.158;9.968;2023-03-13T01:17:34;13.75;;;5.03;;
14346;SDS011;7257;52.158;9.968;2023-03-13T01:17:55;12.32;;;4.82;;
14346;SDS011;7257;52.158;9.968;2023-03-13T01:18:16;11.00;;;4.80;;
14346;SDS011;7257;52.158;9.968;2023-03-13T01:18:38;11.25;;;4.72;;
14346;SDS011;7257;52.158;9.968;2023-03-13T01:19:02;9.43;;;3.88;;
14346;SDS011;7257;52.158;9.968;2023-03-13T01:19:26;11.57;;;4.00;;
14346;SDS011;7257;52.158;9.968;2023-03-13T01:19:47;12.70;;;3.90;;
14346;SDS011;7257;52.158;9.968;2023-03-13T01:20:10;15.82;;;4.25;;
14346;SDS011;7257;52.158;9.968;2023-03-13T01:20:32;14.20;;;4.40;;
14346;SDS011;7257;52.158;9.968;2023-03-13T01:20:53;11.27;;;4.30;;
14346;SDS011;7257;52.158;9.968;2023-03-13T01:21:15;9.43;;;4.00;;
14346;SDS011;7257;52.158;9.968;2023-03-13T01:21:38;9.18;;;3.70;;
14346;SDS011;7257;52.158;9.968;2023-03-13T01:22:00;10.32;;;3.83;;
14346;SDS011;7257;52.158;9.968;2023-03-13T01:22:22;11.95;;;4.22;;
14346;SDS011;7257;52.158;9.968;2023-03-13T01:22:42;11.85;;;4.50;;
14346;SDS011;7257;52.158;9.968;2023-03-13T01:23:03;10.38;;;3.92;;
14346;SDS011;7257;52.158;9.968;2023-03-13T01:23:24;10.23;;;4.00;;
14346;SDS011;7257;52.158;9.968;2023-03-13T01:23:46;9.32;;;4.05;;
14346;SDS011;7257;52.158;9.968;2023-03-13T01:24:08;11.77;;;4.50;;
14346;SDS011;7257;52.158;9.968;2023-03-13T01:24:30;13.75;;;4.95;;
14346;SDS011;7257;52.158;9.968;2023-03-13T01:24:51;14.67;;;5.47;;
14346;SDS011;7257;52.158;9.968;2023-03-13T01:25:12;12.13;;;5.82;;
14346;SDS011;7257;52.158;9.968;2023-03-13T01:25:34;8.95;;;5.40;;
14346;SDS011;7257;52.158;9.968;2023-03-13T01:25:57;9.35;;;4.78;;
14346;SDS011;7257;52.158;9.968;2023-03-13T01:26:18;9.70;;;4.32;;
14346;SDS011;7257;52.158;9.968;2023-03-13T01:26:39;9.30;;;4.30;;
14346;SDS011;7257;52.158;9.968;2023-03-13T01:27:00;9.38;;;4.68;;
14346;SDS011;7257;52.158;9.968;2023-03-13T01:27:22;10.85;;;4.63;;
14346;SDS011;7257;52.158;9.968;2023-03-13T01:27:43;12.18;;;4.00;;
14346;SDS011;7257;52.158;9.968;2023-03-13T01:28:03;12.30;;;3.83;;
14346;SDS011;7257;52.158;9.968;2023-03-13T01:28:25;12.80;;;4.07;;
14346;SDS011;7257;52.158;9.968;2023-03-13T01:28:46;15.90;;;4.50;;
14346;SDS011;7257;52.158;9.968;2023-03-13T01:29:08;13.00;;;4.20;;
14346;SDS011;7257;52.158;9.968;2023-03-13T01:29:29;14.85;;;4.63;;
14346;SDS011;7257;52.158;9.968;2023-03-13T01:29:50;13.13;;;4.60;;
14346;SDS011;7257;52.158;9.968;2023-03-13T01:30:11;13.38;;;4.85;;
14346;SDS011;7257;52.158;9.968;2023-03-13T01:30:33;14.15;;;4.75;;
14346;SDS011;7257;52.158;9.968;2023-03-13T01:30:54;10.93;;;4.35;;
14346;SDS011;7257;52.158;9.968;2023-03-13T01:31:16;10.90;;;4.25;;
14346;SDS011;7257;52.158;9.968;2023-03-13T01:31:39;8.70;;;3.63;;
14346;SDS011;7257;52.158;9.968;2023-03-13T01:32:00;7.90;;;3.60;;
14346;SDS011;7257;52.158;9.968;2023-03-13T01:32:21;8.07;;;3.72;;
14346;SDS011;7257;52.158;9.968;2023-03-13T01:32:43;9.70;;;4.20;;
14346;SDS011;7257;52.158;9.968;2023-03-13T01:33:03;10.02;;;4.07;;
14346;SDS011;7257;52.158;9.968;2023-03-13T01:33:24;9.30;;;4.03;;
14346;SDS011;7257;52.158;9.968;2023-03-13T01:33:47;10.23;;;4.07;;
14346;SDS011;7257;52.158;9.968;2023-03-13T01:34:10;8.55;;;4.70;;
14346;SDS011;7257;52.158;9.968;2023-03-13T01:34:31;10.40;;;4.43;;
14346;SDS011;7257;52.158;9.968;2023-03-13T01:34:52;9.10;;;4.60;;
14346;SDS011;7257;52.158;9.968;2023-03-13T01:35:15;8.75;;;4.20;;
14346;SDS011;7257;52.158;9.968;2023-03-13T01:35:37;7.68;;;4.32;;
14346;SDS011;7257;52.158;9.968;2023-03-13T01:35:59;10.60;;;4.45;;
14346;SDS011;7257;52.158;9.968;2023-03-13T01:36:21;13.00;;;4.65;;
14346;SDS011;7257;52.158;9.968;2023-03-13T01:36:45;14.20;;;5.07;;
14346;SDS011;7257;52.158;9.968;2023-03-13T01:37:09;10.45;;;4.30;;
14346;SDS011;7257;52.158;9.968;2023-03-13T01:37:30;8.90;;;3.88;;
14346;SDS011;7257;52.158;9.968;2023-03-13T01:37:52;9.15;;;4.28;;
14346;SDS011;7257;52.158;9.968;2023-03-13T01:38:13;9.82;;;4.90;;
14346;SDS011;7257;52.158;9.968;2023-03-13T01:38:34;9.52;;;4.82;;
14346;SDS011;7257;52.158;9.968;2023-03-13T01:38:57;9.63;;;4.45;;
14346;SDS011;7257;52.158;9.968;2023-03-13T01:39:20;10.48;;;4.00;;
14346;SDS011;7257;52.158;9.968;2023-03-13T01:39:41;10.67;;;3.90;;
14346;SDS011;7257;52.158;9.968;2023-03-13T01:40:02;10.20;;;3.60;;
14346;SDS011;7257;52.158;9.968;2023-03-13T01:40:23;10.95;;;3.60;;
14346;SDS011;7257;52.158;9.968;2023-03-13T01:40:46;14.23;;;4.25;;
14346;SDS011;7257;52.158;9.968;2023-03-13T01:41:09;14.02;;;4.57;;
14346;SDS011;7257;52.158;9.968;2023-03-13T01:41:31;11.52;;;4.65;;
14346;SDS011;7257;52.158;9.968;2023-03-13T01:41:52;13.38;;;5.05;;
14346;SDS011;7257;52.158;9.968;2023-03-13T01:42:14;13.50;;;5.20;;
14346;SDS011;7257;52.158;9.968;2023-03-13T01:42:50;11.50;;;4.40;;
14346;SDS011;7257;52.158;9.968;2023-03-13T01:43:15;9.45;;;4.25;;
14346;SDS011;7257;52.158;9.968;2023-03-13T01:43:39;11.23;;;4.95;;
14346;SDS011;7257;52.158;9.968;2023-03-13T01:44:00;12.50;;;4.68;;
14346;SDS011;7257;52.158;9.968;2023-03-13T01:44:21;10.57;;;4.23;;
14346;SDS011;7257;52.158;9.968;2023-03-13T01:44:48;9.93;;;4.00;;
14346;SDS011;7257;52.158;9.968;2023-03-13T01:46:09;9.05;;;3.75;;
14346;SDS011;7257;52.158;9.968;2023-03-13T01:46:33;7.05;;;3.83;;
14346;SDS011;7257;52.158;9.968;2023-03-13T01:46:54;8.53;;;4.13;;
14346;SDS011;7257;52.158;9.968;2023-03-13T01:47:15;8.80;;;4.50;;
14346;SDS011;7257;52.158;9.968;2023-03-13T01:47:36;10.88;;;4.95;;
14346;SDS011;7257;52.158;9.968;2023-03-13T01:48:00;12.45;;;4.57;;
14346;SDS011;7257;52.158;9.968;2023-03-13T01:48:23;17.17;;;4.55;;
14346;SDS011;7257;52.158;9.968;2023-03-13T01:48:47;17.33;;;4.10;;
14346;SDS011;7257;52.158;9.968;2023-03-13T01:49:11;14.15;;;4.18;;
14346;SDS011;7257;52.158;9.968;2023-03-13T01:49:35;12.02;;;4.43;;
14346;SDS011;7257;52.158;9.968;2023-03-13T01:49:57;12.05;;;4.90;;
14346;SDS011;7257;52.158;9.968;2023-03-13T01:50:19;12.25;;;5.03;;
14346;SDS011;7257;52.158;9.968;2023-03-13T01:50:41;14.45;;;4.95;;
14346;SDS011;7257;52.158;9.968;2023-03-13T01:51:03;10.90;;;4.18;;
14346;SDS011;7257;52.158;9.968;2023-03-13T01:51:28;6.85;;;3.55;;
14346;SDS011;7257;52.158;9.968;2023-03-13T01:51:54;7.97;;;3.70;;
14346;SDS011;7257;52.158;9.968;2023-03-13T01:52:18;9.80;;;3.90;;
14346;SDS011;7257;52.158;9.968;2023-03-13T01:52:44;10.73;;;3.80;;
14346;SDS011;7257;52.158;9.968;2023-03-13T01:53:05;10.55;;;3.95;;
14346;SDS011;7257;52.158;9.968;2023-03-13T01:53:26;13.18;;;4.70;;
14346;SDS011;7257;52.158;9.968;2023-03-13T01:53:50;11.73;;;4.25;;
14346;SDS011;7257;52.158;9.968;2023-03-13T01:54:18;11.85;;;4.07;;
14346;SDS011;7257;52.158;9.968;2023-03-13T01:54:43;11.40;;;4.70;;
14346;SDS011;7257;52.158;9.968;2023-03-13T01:55:10;10.02;;;4.15;;
14346;SDS011;7257;52.158;9.968;2023-03-13T01:55:33;8.82;;;3.67;;
14346;SDS011;7257;52.158;9.968;2023-03-13T01:55:55;7.90;;;3.30;;
14346;SDS011;7257;52.158;9.968;2023-03-13T01:56:19;8.27;;;3.45;;
14346;SDS011;7257;52.158;9.968;2023-03-13T01:56:46;7.15;;;3.35;;
14346;SDS011;7257;52.158;9.968;2023-03-13T01:57:11;9.02;;;4.32;;
14346;SDS011;7257;52.158;9.968;2023-03-13T01:57:36;8.52;;;4.03;;
14346;SDS011;7257;52.158;9.968;2023-03-13T01:58:01;9.35;;;3.88;;
14346;SDS011;7257;52.158;9.968;2023-03-13T01:58:23;11.13;;;4.40;;
14346;SDS011;7257;52.158;9.968;2023-03-13T01:58:46;10.45;;;4.07;;
14346;SDS011;7257;52.158;9.968;2023-03-13T01:59:11;10.00;;;3.50;;
14346;SDS011;7257;52.158;9.968;2023-03-13T01:59:36;11.88;;;4.30;;
14346;SDS011;7257;52.158;9.968;2023-03-13T02:00:03;10.73;;;4.40;;
14346;SDS011;7257;52.158;9.968;2023-03-13T02:00:28;10.63;;;4.05;;
14346;SDS011;7257;52.158;9.968;2023-03-13T02:00:53;8.45;;;3.60;;
14346;SDS011;7257;52.158;9.968;2023-03-13T02:01:14;9.32;;;3.80;;
14346;SDS011;7257;52.158;9.968;2023-03-13T02:01:36;10.38;;;3.75;;
14346;SDS011;7257;52.158;9.968;2023-03-13T02:01:59;10.20;;;3.95;;
14346;SDS011;7257;52.158;9.968;2023-03-13T02:02:22;8.75;;;4.00;;
14346;SDS011;7257;52.158;9.968;2023-03-13T02:02:44;8.32;;;3.92;;
14346;SDS011;7257;52.158;9.968;2023-03-13T02:03:09;7.38;;;3.63;;
14346;SDS011;7257;52.158;9.968;2023-03-13T02:03:32;8.43;;;3.50;;
14346;SDS011;7257;52.158;9.968;2023-03-13T02:03:56;10.77;;;4.18;;
14346;SDS011;7257;52.158;9.968;2023-03-13T02:04:17;11.98;;;4.30;;
14346;SDS011;7257;52.158;9.968;2023-03-13T02:04:41;10.27;;;3.60;;
14346;SDS011;7257;52.158;9.968;2023-03-13T02:05:07;7.32;;;3.35;;
14346;SDS011;7257;52.158;9.968;2023-03-13T02:05:30;7.90;;;3.70;;
14346;SDS011;7257;52.158;9.968;2023-03-13T02:05:50;9.30;;;4.28;;
14346;SDS011;7257;52.158;9.968;2023-03-13T02:06:12;10.45;;;4.45;;
14346;SDS011;7257;52.158;9.968;2023-03-13T02:06:34;7.28;;;4.10;;
14346;SDS011;7257;52.158;9.968;2023-03-13T02:06:59;6.32;;;3.85;;
14346;SDS011;7257;52.158;9.968;2023-03-13T02:07:25;8.02;;;3.88;;
14346;SDS011;7257;52.158;9.968;2023-03-13T02:07:53;10.30;;;4.10;;
14346;SDS011;7257;52.158;9.968;2023-03-13T02:08:19;10.65;;;4.18;;
14346;SDS011;7257;52.158;9.968;2023-03-13T02:08:44;8.75;;;3.72;;
14346;SDS011;7257;52.158;9.968;2023-03-13T02:09:11;9.85;;;3.35;;
14346;SDS011;7257;52.158;9.968;2023-03-13T02:09:38;9.77;;;3.83;;
14346;SDS011;7257;52.158;9.968;2023-03-13T02:10:03;8.77;;;3.65;;
14346;SDS011;7257;52.158;9.968;2023-03-13T02:10:24;10.13;;;3.67;;
14346;SDS011;7257;52.158;9.968;2023-03-13T02:10:49;11.02;;;4.15;;
14346;SDS011;7257;52.158;9.968;2023-03-13T02:11:15;8.80;;;3.92;;
14346;SDS011;7257;52.158;9.968;2023-03-13T02:11:44;7.93;;;3.50;;
14346;SDS011;7257;52.158;9.968;2023-03-13T02:12:09;7.82;;;3.42;;
14346;SDS011;7257;52.158;9.968;2023-03-13T02:12:34;9.05;;;3.80;;
14346;SDS011;7257;52.158;9.968;2023-03-13T02:12:56;9.45;;;4.20;;
14346;SDS011;7257;52.158;9.968;2023-03-13T02:13:20;7.65;;;4.03;;
14346;SDS011;7257;52.158;9.968;2023-03-13T02:13:42;7.38;;;3.60;;
14346;SDS011;7257;52.158;9.968;2023-03-13T02:14:03;8.88;;;3.80;;
14346;SDS011;7257;52.158;9.968;2023-03-13T02:14:25;9.55;;;3.90;;
14346;SDS011;7257;52.158;9.968;2023-03-13T02:14:49;12.45;;;4.00;;
14346;SDS011;7257;52.158;9.968;2023-03-13T02:15:14;12.55;;;4.40;;
14346;SDS011;7257;52.158;9.968;2023-03-13T02:15:37;14.43;;;4.65;;
14346;SDS011;7257;52.158;9.968;2023-03-13T02:16:00;14.00;;;4.60;;